Terminal Aerodrome Forecast
Issued by NWS Bismarck, ND

Home | Current Version | Previous Version | Text Only | Print | Product List | Glossary On
Versions: 1 2 3 4 5 6 7 8 9 10 11 12 13 14 15 16 17 18 19 20
000
FTUS43 KBIS 291743
TAFBIS
TAF
KBIS 291743Z 2918/3018 01019G23KT P6SM SCT024 BKN040
     FM292100 36013G18KT P6SM SCT050
     FM300100 03005KT P6SM SKC
     FM300600 07003KT P6SM SKC
     FM301500 10008KT P6SM SKC=

USA.gov is the U.S. government's official web portal to all federal, state and local government web resources and services.